createdAt,value
2022-08-17T00:02:59.801Z,12.30
2022-08-17T00:08:04.783Z,12.70
2022-08-17T00:13:16.467Z,12.00
2022-08-17T00:19:02.129Z,13.20
2022-08-17T00:23:44.510Z,12.30
2022-08-17T00:28:51.035Z,13.00
2022-08-17T00:33:53.738Z,12.10
2022-08-17T00:38:55.588Z,12.60
2022-08-17T00:43:59.620Z,11.60
2022-08-17T00:49:01.568Z,11.50
2022-08-17T00:54:06.383Z,12.70
2022-08-17T00:59:09.215Z,12.00
2022-08-17T01:04:11.236Z,12.10
2022-08-17T01:09:13.566Z,10.60
2022-08-17T01:14:15.426Z,10.20
2022-08-17T01:19:22.855Z,12.30
2022-08-17T01:24:24.876Z,12.50
2022-08-17T01:29:30.864Z,12.60
2022-08-17T01:34:42.638Z,12.00
2022-08-17T01:39:54.222Z,12.50
2022-08-17T01:44:57.167Z,12.80
2022-08-17T01:50:04.756Z,12.50
2022-08-17T01:55:07.250Z,11.10
2022-08-17T02:00:13.201Z,10.80
2022-08-17T02:05:16.028Z,11.60
2022-08-17T02:10:20.034Z,11.70
2022-08-17T02:15:22.547Z,11.90
2022-08-17T02:20:41.660Z,12.10
2022-08-17T02:25:45.251Z,12.20
2022-08-17T02:30:59.468Z,12.10
2022-08-17T02:36:05.053Z,13.40
2022-08-17T02:41:06.995Z,12.00
2022-08-17T02:51:10.876Z,12.90
2022-08-17T02:56:12.628Z,12.60
2022-08-17T03:01:14.522Z,13.10
2022-08-17T03:06:16.829Z,13.80
2022-08-17T03:11:18.580Z,14.00
2022-08-17T03:16:20.422Z,13.20
2022-08-17T03:21:22.151Z,13.90
2022-08-17T03:26:23.991Z,14.00
2022-08-17T03:31:31.997Z,15.00
2022-08-17T03:36:36.083Z,14.40
2022-08-17T03:41:38.099Z,15.20
2022-08-17T03:46:58.210Z,13.90
2022-08-17T03:52:18.536Z,13.70
2022-08-17T03:57:22.582Z,13.70
2022-08-17T04:02:27.006Z,14.60
2022-08-17T04:07:30.286Z,13.90
2022-08-17T04:12:43.247Z,14.80
2022-08-17T04:17:45.943Z,14.70
2022-08-17T04:23:05.125Z,15.00
2022-08-17T04:28:07.654Z,16.40
2022-08-17T04:33:19.885Z,16.20
2022-08-17T04:38:24.241Z,16.10
2022-08-17T04:43:27.562Z,16.00
2022-08-17T04:48:36.138Z,16.90
2022-08-17T04:53:40.165Z,17.30
2022-08-17T04:58:42.642Z,20.60
2022-08-17T05:03:44.531Z,20.50
2022-08-17T05:08:48.063Z,22.30
2022-08-17T05:13:50.452Z,20.40
2022-08-17T05:18:52.496Z,19.30
2022-08-17T05:23:56.413Z,25.50
2022-08-17T05:29:02.850Z,20.10
2022-08-17T05:34:04.843Z,18.90
2022-08-17T05:39:06.909Z,18.70
2022-08-17T05:44:08.888Z,17.50
2022-08-17T05:49:11.489Z,17.00
2022-08-17T05:54:32.031Z,17.10
2022-08-17T06:04:38.526Z,18.60
2022-08-17T06:09:40.406Z,18.60
2022-08-17T06:14:49.435Z,18.60
2022-08-17T06:19:54.940Z,20.90
2022-08-17T06:25:02.490Z,19.40
2022-08-17T06:30:08.507Z,19.60
2022-08-17T06:35:18.589Z,16.70
2022-08-17T06:40:26.580Z,15.10
2022-08-17T06:45:35.659Z,16.10
2022-08-17T06:50:40.079Z,16.40
2022-08-17T06:55:45.454Z,15.80
2022-08-17T07:00:47.957Z,14.10
2022-08-17T07:05:52.589Z,14.90
2022-08-17T07:10:56.658Z,17.60
2022-08-17T07:16:04.746Z,14.20
2022-08-17T07:21:17.523Z,14.10
2022-08-17T07:26:19.798Z,11.60
2022-08-17T07:31:21.984Z,11.40
2022-08-17T07:36:29.550Z,12.40
2022-08-17T07:41:57.300Z,12.00
2022-08-17T07:47:14.704Z,11.60
2022-08-17T07:52:47.915Z,10.80
2022-08-17T07:58:03.507Z,10.00
2022-08-17T08:03:17.175Z,10.10
2022-08-17T08:08:39.434Z,10.50
2022-08-17T08:13:45.321Z,19.80
2022-08-17T08:18:54.943Z,10.50
2022-08-17T08:24:17.531Z,10.20
2022-08-17T08:29:38.380Z,10.20
2022-08-17T08:35:01.945Z,11.60
2022-08-17T08:40:23.651Z,10.10
2022-08-17T08:45:34.176Z,10.10
2022-08-17T08:50:46.943Z,9.70
2022-08-17T08:55:49.197Z,10.20
2022-08-17T09:00:54.769Z,9.40
2022-08-17T09:06:00.534Z,10.10
2022-08-17T09:11:11.193Z,10.20
2022-08-17T09:16:16.474Z,10.40
2022-08-17T09:21:22.643Z,10.40
2022-08-17T09:26:31.382Z,9.40
2022-08-17T09:31:48.826Z,10.00
2022-08-17T09:37:17.315Z,9.00
2022-08-17T09:42:29.678Z,9.10
2022-08-17T09:47:52.224Z,8.30
2022-08-17T09:52:56.786Z,9.70
2022-08-17T09:58:29.071Z,8.40
2022-08-17T10:03:50.912Z,7.80
2022-08-17T10:09:08.302Z,8.10
2022-08-17T10:14:36.343Z,7.50
2022-08-17T10:19:43.943Z,8.10
2022-08-17T10:25:21.477Z,7.70
2022-08-17T10:30:27.609Z,7.80
2022-08-17T10:35:35.501Z,7.90
2022-08-17T10:40:45.457Z,7.80
2022-08-17T10:46:27.637Z,8.10
2022-08-17T10:51:34.660Z,7.50
2022-08-17T10:56:42.335Z,8.70
2022-08-17T11:02:04.445Z,7.20
2022-08-17T11:07:17.935Z,7.70
2022-08-17T11:12:38.177Z,7.70
2022-08-17T11:17:55.583Z,6.80
2022-08-17T11:23:18.508Z,6.70
2022-08-17T11:28:35.915Z,6.40
2022-08-17T11:33:44.995Z,6.90
2022-08-17T11:38:58.121Z,6.20
2022-08-17T11:44:18.376Z,6.90
2022-08-17T11:49:49.290Z,6.60
2022-08-17T11:54:52.181Z,6.60
2022-08-17T12:00:29.944Z,7.00
2022-08-17T12:05:32.451Z,6.60
2022-08-17T12:10:36.683Z,7.00
2022-08-17T12:15:43.285Z,6.50
2022-08-17T12:20:45.315Z,6.30
2022-08-17T12:25:56.358Z,6.40
2022-08-17T12:31:03.015Z,6.20
2022-08-17T12:36:06.578Z,6.50
2022-08-17T12:41:28.517Z,6.90
2022-08-17T12:46:33.645Z,7.20
2022-08-17T12:51:35.574Z,6.10
2022-08-17T12:56:37.351Z,6.60
2022-08-17T13:01:41.889Z,5.60
2022-08-17T13:06:51.846Z,6.60
2022-08-17T13:12:01.832Z,7.00
2022-08-17T13:17:09.671Z,6.20
2022-08-17T13:22:14.837Z,6.00
2022-08-17T13:27:20.212Z,14.40
2022-08-17T13:32:33.459Z,7.20
2022-08-17T13:37:36.532Z,6.60
2022-08-17T13:42:52.262Z,6.50
2022-08-17T13:48:14.951Z,6.00
2022-08-17T13:53:19.588Z,6.80
2022-08-17T13:58:26.722Z,5.80
2022-08-17T14:03:28.467Z,5.80
2022-08-17T14:08:30.892Z,6.10
2022-08-17T14:13:32.663Z,5.90
2022-08-17T14:18:56.716Z,5.40
2022-08-17T14:23:56.134Z,4.10
2022-08-17T14:28:57.975Z,3.70
2022-08-17T14:33:59.914Z,4.80
2022-08-17T14:39:01.769Z,5.30
2022-08-17T14:44:04.400Z,4.90
2022-08-17T14:49:06.660Z,5.60
2022-08-17T14:54:08.545Z,5.00
2022-08-17T14:59:10.218Z,5.00
2022-08-17T15:04:14.948Z,5.80
2022-08-17T15:09:17.052Z,5.90
2022-08-17T15:14:19.360Z,5.30
2022-08-17T15:19:21.217Z,5.40
2022-08-17T15:24:23.068Z,4.50
2022-08-17T15:29:24.868Z,4.90
2022-08-17T15:34:26.640Z,5.20
2022-08-17T15:39:28.849Z,4.70
2022-08-17T15:44:32.712Z,4.70
2022-08-17T15:49:40.573Z,4.20
2022-08-17T15:54:42.301Z,10.80
2022-08-17T15:59:47.344Z,5.30
2022-08-17T16:04:55.139Z,5.20
2022-08-17T16:09:57.299Z,5.10
2022-08-17T16:14:58.894Z,5.10
2022-08-17T16:20:00.893Z,5.10
2022-08-17T16:25:04.872Z,4.90
2022-08-17T16:30:06.925Z,5.00
2022-08-17T16:35:11.106Z,5.10
2022-08-17T16:40:13.848Z,4.80
2022-08-17T16:45:23.526Z,5.90
2022-08-17T16:50:25.301Z,5.70
2022-08-17T16:55:27.099Z,6.10
2022-08-17T17:00:30.013Z,5.70
2022-08-17T17:05:55.296Z,5.80
2022-08-17T17:11:03.912Z,5.50
2022-08-17T17:16:21.894Z,6.70
2022-08-17T17:21:25.563Z,7.40
2022-08-17T17:26:48.615Z,7.00
2022-08-17T17:31:55.640Z,6.80
2022-08-17T17:36:59.051Z,7.00
2022-08-17T17:42:07.857Z,11.20
2022-08-17T17:47:10.367Z,11.00
2022-08-17T17:52:19.476Z,11.20
2022-08-17T17:57:24.903Z,20.50
2022-08-17T18:02:56.764Z,16.40
2022-08-17T18:07:58.685Z,11.00
2022-08-17T18:13:20.102Z,8.70
2022-08-17T18:18:38.129Z,9.70
2022-08-17T18:23:46.068Z,9.00
2022-08-17T18:28:50.533Z,9.80
2022-08-17T18:33:53.843Z,10.50
2022-08-17T18:39:30.987Z,10.00
2022-08-17T18:44:35.688Z,10.70
2022-08-17T18:49:37.555Z,12.00
2022-08-17T18:54:39.547Z,11.50
2022-08-17T18:59:42.879Z,11.10
2022-08-17T19:05:03.230Z,10.80
2022-08-17T19:10:20.128Z,11.90
2022-08-17T19:15:26.290Z,12.60
2022-08-17T19:20:34.813Z,12.10
2022-08-17T19:25:40.083Z,12.60
2022-08-17T19:30:41.991Z,12.40
2022-08-17T19:35:55.701Z,11.50
2022-08-17T19:41:03.711Z,12.90
2022-08-17T19:46:15.878Z,13.00
2022-08-17T19:51:17.913Z,12.50
2022-08-17T19:56:22.712Z,11.50
2022-08-17T20:01:31.149Z,12.50
2022-08-17T20:06:39.173Z,11.80
2022-08-17T20:11:55.572Z,11.50
2022-08-17T20:17:02.339Z,12.50
2022-08-17T20:22:30.927Z,12.70
2022-08-17T20:27:59.178Z,13.20
2022-08-17T20:33:18.546Z,14.00
2022-08-17T20:38:44.416Z,12.30
2022-08-17T20:43:49.125Z,13.50
2022-08-17T20:48:53.280Z,14.50
2022-08-17T20:53:54.978Z,13.90
2022-08-17T20:58:56.842Z,13.20
2022-08-17T21:03:58.712Z,13.70
2022-08-17T21:09:12.570Z,13.90
2022-08-17T21:14:31.652Z,15.10
2022-08-17T21:20:07.734Z,15.00
2022-08-17T21:25:07.984Z,14.70
2022-08-17T21:30:10.276Z,14.50
2022-08-17T21:35:19.573Z,14.70
2022-08-17T21:40:29.222Z,14.80
2022-08-17T21:45:35.600Z,14.90
2022-08-17T21:50:38.085Z,14.80
2022-08-17T21:55:40.016Z,14.50
2022-08-17T22:00:44.499Z,15.20
2022-08-17T22:05:50.387Z,16.30
2022-08-17T22:11:00.160Z,15.60
2022-08-17T22:16:27.881Z,16.70
2022-08-17T22:21:29.594Z,15.60
2022-08-17T22:26:50.004Z,16.40
2022-08-17T22:37:14.164Z,15.60
2022-08-17T22:42:16.015Z,16.50
2022-08-17T22:47:18.989Z,17.90
2022-08-17T22:52:32.222Z,15.80
2022-08-17T22:57:55.614Z,15.80
2022-08-17T23:03:05.707Z,19.50
2022-08-17T23:08:07.912Z,17.00
2022-08-17T23:13:11.964Z,16.80
2022-08-17T23:18:13.841Z,16.20
2022-08-17T23:23:15.665Z,17.60
2022-08-17T23:28:17.434Z,17.30
2022-08-17T23:33:21.397Z,18.90
2022-08-17T23:38:25.518Z,18.80
2022-08-17T23:43:28.359Z,18.00
2022-08-17T23:48:36.708Z,17.50
2022-08-17T23:53:41.955Z,18.70
2022-08-17T23:58:49.041Z,18.70
